Florence, Italy

7:48 AM CEST on March 31, 2015 (GMT +0200)
Peretola | | Change Station
CLOSE
Current Station
Airport
Location: Florence,
Elevation: 125 ft
Nearby Weather Stations

Elev 125 ft 43.81 °N, 11.20 °E | Updated 28 minutes ago

Scattered Clouds
Scattered Clouds
50 °F
Feels Like 50 °F
N
2
Wind Variable Wind from NNE

Today
High -- | Low -- °F
--% Chance of Precip.
Yesterday
High -- | Low -- °F
Precip. -- in
6:59 AM 7:40 PM
Waxing Gibbous, 84% visible
Pressure 29.89 in
Visibility 3.7 miles
Clouds Scattered Clouds 2000 ft
Scattered Clouds 3000 ft
Dew Point 48 °F
Humidity 94%
Rainfall 0.00 in
Snow Depth Not available.
UV 0 out of 12
Pollen Not available.
Air Quality Not available.
Flu Activity Not available.
METAR LIRQ 310520Z 03002KT 6000 SCT020 SCT030 10/09 Q1012

More Conditions Fewer Conditions

Pressure 29.89 in
Visibility 3.7 miles
Clouds Scattered Clouds 2000 ft
Scattered Clouds 3000 ft
Dew Point 48 °F
Humidity 94%
Rainfall 0.00 in
Snow Depth Not available.
UV 0 out of 12
Pollen Not available.
Air Quality Not available.
Flu Activity Not available.
METAR LIRQ 310520Z 03002KT 6000 SCT020 SCT030 10/09 Q1012

More Conditions Fewer Conditions

10-Day Weather Forecast

Almanac

Astronomy

Mar. 31, 2015 Rise Set
Actual Time
Civil Twilight
Nautical Twilight
Astronomical Twilight
Moon
Length of Visible Light
Length of Day
Tomorrow will be .
, % of the Moon is Illuminated

Today's Extremes

Country Highs Country Lows

Community

WunderPhotos

Upload Photos

1,809,724 photos uploaded!

WunderBlogs® & News

Nearby

Air Quality

  Air Quality AQ Index Pollutant
Not available.

Snow Depth

Station Depth Elevation

Earthquake Activity

City Distance Mag. Time & Date
Minimum magnitude displayed is 2.5.

Coastal Water Temperatures

Place Temperature

Stations

Nearby Weather Stations

Station Location Temp. Windchill Dew Point Humidity Wind Precip. Elev Updated Type